sensor_id;sensor_type;location;lat;lon;timestamp;temperature;humidity
324;DHT22;149;51.094;17.002;2023-02-24T00:02:12;10.30;99.90
324;DHT22;149;51.094;17.002;2023-02-24T00:04:40;10.20;99.90
324;DHT22;149;51.094;17.002;2023-02-24T00:07:09;10.10;99.90
324;DHT22;149;51.094;17.002;2023-02-24T00:09:36;10.10;99.90
324;DHT22;149;51.094;17.002;2023-02-24T00:12:09;10.00;99.90
324;DHT22;149;51.094;17.002;2023-02-24T00:14:38;9.90;99.90
324;DHT22;149;51.094;17.002;2023-02-24T00:17:07;10.00;99.90
324;DHT22;149;51.094;17.002;2023-02-24T00:19:35;10.10;99.90
324;DHT22;149;51.094;17.002;2023-02-24T00:22:04;10.10;99.90
324;DHT22;149;51.094;17.002;2023-02-24T00:24:32;10.10;99.90
324;DHT22;149;51.094;17.002;2023-02-24T00:27:01;9.70;99.90
324;DHT22;149;51.094;17.002;2023-02-24T00:29:34;9.70;99.90
324;DHT22;149;51.094;17.002;2023-02-24T00:32:03;9.70;99.90
324;DHT22;149;51.094;17.002;2023-02-24T00:34:35;9.80;99.90
324;DHT22;149;51.094;17.002;2023-02-24T00:37:02;9.60;99.90
324;DHT22;149;51.094;17.002;2023-02-24T00:39:33;9.60;99.90
324;DHT22;149;51.094;17.002;2023-02-24T00:42:03;9.40;99.90
324;DHT22;149;51.094;17.002;2023-02-24T00:44:33;9.50;99.90
324;DHT22;149;51.094;17.002;2023-02-24T00:47:01;9.60;99.90
324;DHT22;149;51.094;17.002;2023-02-24T00:49:31;9.60;99.90
324;DHT22;149;51.094;17.002;2023-02-24T00:51:58;9.50;99.90
324;DHT22;149;51.094;17.002;2023-02-24T00:54:25;9.60;99.90
324;DHT22;149;51.094;17.002;2023-02-24T00:56:55;9.60;99.90
324;DHT22;149;51.094;17.002;2023-02-24T00:59:23;9.60;99.90
324;DHT22;149;51.094;17.002;2023-02-24T01:01:50;9.70;99.90
324;DHT22;149;51.094;17.002;2023-02-24T01:04:17;9.90;99.90
324;DHT22;149;51.094;17.002;2023-02-24T01:06:48;9.60;99.90
324;DHT22;149;51.094;17.002;2023-02-24T01:09:18;9.50;99.90
324;DHT22;149;51.094;17.002;2023-02-24T01:11:48;9.60;99.90
324;DHT22;149;51.094;17.002;2023-02-24T01:14:34;9.60;99.90
324;DHT22;149;51.094;17.002;2023-02-24T01:17:03;9.60;99.90
324;DHT22;149;51.094;17.002;2023-02-24T01:19:32;9.50;99.90
324;DHT22;149;51.094;17.002;2023-02-24T01:22:06;9.70;99.90
324;DHT22;149;51.094;17.002;2023-02-24T01:24:36;9.60;99.90
324;DHT22;149;51.094;17.002;2023-02-24T01:27:04;9.40;99.90
324;DHT22;149;51.094;17.002;2023-02-24T01:29:32;9.50;99.90
324;DHT22;149;51.094;17.002;2023-02-24T01:32:06;9.40;99.90
324;DHT22;149;51.094;17.002;2023-02-24T01:34:33;9.50;99.90
324;DHT22;149;51.094;17.002;2023-02-24T01:37:00;9.60;99.90
324;DHT22;149;51.094;17.002;2023-02-24T01:39:27;9.80;99.90
324;DHT22;149;51.094;17.002;2023-02-24T01:41:55;9.80;99.90
324;DHT22;149;51.094;17.002;2023-02-24T01:46:51;9.90;99.90
324;DHT22;149;51.094;17.002;2023-02-24T01:51:55;10.00;99.90
324;DHT22;149;51.094;17.002;2023-02-24T01:54:29;10.00;99.90
324;DHT22;149;51.094;17.002;2023-02-24T01:56:58;9.90;99.90
324;DHT22;149;51.094;17.002;2023-02-24T01:59:29;9.80;99.90
324;DHT22;149;51.094;17.002;2023-02-24T02:02:01;9.80;99.90
324;DHT22;149;51.094;17.002;2023-02-24T02:04:39;9.80;99.90
324;DHT22;149;51.094;17.002;2023-02-24T02:07:11;9.90;99.90
324;DHT22;149;51.094;17.002;2023-02-24T02:09:39;10.00;99.90
324;DHT22;149;51.094;17.002;2023-02-24T02:12:10;9.90;99.90
324;DHT22;149;51.094;17.002;2023-02-24T02:14:42;9.90;99.90
324;DHT22;149;51.094;17.002;2023-02-24T02:25:47;9.60;99.90
324;DHT22;149;51.094;17.002;2023-02-24T02:36:28;9.70;99.90
324;DHT22;149;51.094;17.002;2023-02-24T02:39:09;9.60;99.90
324;DHT22;149;51.094;17.002;2023-02-24T02:41:52;9.60;99.90
324;DHT22;149;51.094;17.002;2023-02-24T02:44:28;9.50;99.90
324;DHT22;149;51.094;17.002;2023-02-24T02:47:03;9.50;99.90
324;DHT22;149;51.094;17.002;2023-02-24T02:49:41;9.60;99.90
324;DHT22;149;51.094;17.002;2023-02-24T02:52:14;9.70;99.90
324;DHT22;149;51.094;17.002;2023-02-24T02:54:59;9.70;99.90
324;DHT22;149;51.094;17.002;2023-02-24T02:57:30;9.60;99.90
324;DHT22;149;51.094;17.002;2023-02-24T03:02:42;9.50;99.90
324;DHT22;149;51.094;17.002;2023-02-24T03:05:13;9.40;99.90
324;DHT22;149;51.094;17.002;2023-02-24T03:07:47;9.40;99.90
324;DHT22;149;51.094;17.002;2023-02-24T03:10:21;9.30;99.90
324;DHT22;149;51.094;17.002;2023-02-24T03:12:51;9.30;99.90
324;DHT22;149;51.094;17.002;2023-02-24T03:15:21;9.30;99.90
324;DHT22;149;51.094;17.002;2023-02-24T03:17:55;9.40;99.90
324;DHT22;149;51.094;17.002;2023-02-24T03:20:32;9.50;99.90
324;DHT22;149;51.094;17.002;2023-02-24T03:23:04;9.60;99.90
324;DHT22;149;51.094;17.002;2023-02-24T03:25:43;9.50;99.90
324;DHT22;149;51.094;17.002;2023-02-24T03:31:01;9.40;99.90
324;DHT22;149;51.094;17.002;2023-02-24T03:33:46;9.30;99.90
324;DHT22;149;51.094;17.002;2023-02-24T03:36:16;9.20;99.90
324;DHT22;149;51.094;17.002;2023-02-24T03:38:42;9.20;99.90
324;DHT22;149;51.094;17.002;2023-02-24T03:41:09;9.30;99.90
324;DHT22;149;51.094;17.002;2023-02-24T03:43:43;9.30;99.90
324;DHT22;149;51.094;17.002;2023-02-24T03:46:14;9.40;99.90
324;DHT22;149;51.094;17.002;2023-02-24T03:48:48;9.40;99.90
324;DHT22;149;51.094;17.002;2023-02-24T03:51:17;9.40;99.90
324;DHT22;149;51.094;17.002;2023-02-24T03:59:12;9.30;99.90
324;DHT22;149;51.094;17.002;2023-02-24T04:01:53;9.30;99.90
324;DHT22;149;51.094;17.002;2023-02-24T04:04:36;9.30;99.90
324;DHT22;149;51.094;17.002;2023-02-24T04:07:13;9.30;99.90
324;DHT22;149;51.094;17.002;2023-02-24T04:10:02;9.30;99.90
324;DHT22;149;51.094;17.002;2023-02-24T04:12:33;9.30;99.90
324;DHT22;149;51.094;17.002;2023-02-24T04:15:26;9.20;99.90
324;DHT22;149;51.094;17.002;2023-02-24T04:18:00;9.10;99.90
324;DHT22;149;51.094;17.002;2023-02-24T04:20:31;9.10;99.90
324;DHT22;149;51.094;17.002;2023-02-24T04:23:03;8.90;99.90
324;DHT22;149;51.094;17.002;2023-02-24T04:25:34;8.90;99.90
324;DHT22;149;51.094;17.002;2023-02-24T04:28:03;8.90;99.90
324;DHT22;149;51.094;17.002;2023-02-24T04:30:36;8.90;99.90
324;DHT22;149;51.094;17.002;2023-02-24T04:33:05;8.90;99.90
324;DHT22;149;51.094;17.002;2023-02-24T04:35:33;8.80;99.90
324;DHT22;149;51.094;17.002;2023-02-24T04:38:00;8.80;99.90
324;DHT22;149;51.094;17.002;2023-02-24T04:40:27;8.70;99.90
324;DHT22;149;51.094;17.002;2023-02-24T04:42:54;8.70;99.90
324;DHT22;149;51.094;17.002;2023-02-24T04:45:26;8.50;99.90
324;DHT22;149;51.094;17.002;2023-02-24T04:47:57;8.70;99.90
324;DHT22;149;51.094;17.002;2023-02-24T04:50:33;8.70;99.90
324;DHT22;149;51.094;17.002;2023-02-24T04:53:04;8.60;99.90
324;DHT22;149;51.094;17.002;2023-02-24T04:55:36;8.50;99.90
324;DHT22;149;51.094;17.002;2023-02-24T04:58:10;8.50;99.90
324;DHT22;149;51.094;17.002;2023-02-24T05:00:39;8.50;99.90
324;DHT22;149;51.094;17.002;2023-02-24T05:03:09;8.40;99.90
324;DHT22;149;51.094;17.002;2023-02-24T05:05:37;8.50;99.90
324;DHT22;149;51.094;17.002;2023-02-24T05:08:07;8.40;99.90
324;DHT22;149;51.094;17.002;2023-02-24T05:10:46;8.60;99.90
324;DHT22;149;51.094;17.002;2023-02-24T05:13:24;8.70;99.90
324;DHT22;149;51.094;17.002;2023-02-24T05:15:56;8.60;99.90
324;DHT22;149;51.094;17.002;2023-02-24T05:18:25;8.70;99.90
324;DHT22;149;51.094;17.002;2023-02-24T05:20:56;8.80;99.90
324;DHT22;149;51.094;17.002;2023-02-24T05:23:44;8.90;99.90
324;DHT22;149;51.094;17.002;2023-02-24T05:26:14;8.80;99.90
324;DHT22;149;51.094;17.002;2023-02-24T05:28:45;8.80;99.90
324;DHT22;149;51.094;17.002;2023-02-24T05:31:23;8.80;99.90
324;DHT22;149;51.094;17.002;2023-02-24T05:33:54;9.00;99.90
324;DHT22;149;51.094;17.002;2023-02-24T05:36:24;8.80;99.90
324;DHT22;149;51.094;17.002;2023-02-24T05:38:53;8.60;99.90
324;DHT22;149;51.094;17.002;2023-02-24T05:41:25;8.60;99.90
324;DHT22;149;51.094;17.002;2023-02-24T05:43:58;8.60;99.90
324;DHT22;149;51.094;17.002;2023-02-24T05:46:30;8.70;99.90
324;DHT22;149;51.094;17.002;2023-02-24T05:49:00;8.40;99.90
324;DHT22;149;51.094;17.002;2023-02-24T05:51:30;8.60;99.90
324;DHT22;149;51.094;17.002;2023-02-24T05:54:09;8.90;99.90
324;DHT22;149;51.094;17.002;2023-02-24T05:56:38;8.70;99.90
324;DHT22;149;51.094;17.002;2023-02-24T05:59:07;8.70;99.90
324;DHT22;149;51.094;17.002;2023-02-24T06:01:39;8.80;99.90
324;DHT22;149;51.094;17.002;2023-02-24T06:04:13;8.90;99.90
324;DHT22;149;51.094;17.002;2023-02-24T06:06:48;8.90;99.90
324;DHT22;149;51.094;17.002;2023-02-24T06:09:18;8.90;99.90
324;DHT22;149;51.094;17.002;2023-02-24T06:11:49;9.20;99.90
324;DHT22;149;51.094;17.002;2023-02-24T06:14:16;9.30;99.90
324;DHT22;149;51.094;17.002;2023-02-24T06:16:43;9.30;99.90
324;DHT22;149;51.094;17.002;2023-02-24T06:19:11;9.20;99.90
324;DHT22;149;51.094;17.002;2023-02-24T06:21:40;8.90;99.90
324;DHT22;149;51.094;17.002;2023-02-24T06:24:13;8.50;99.90
324;DHT22;149;51.094;17.002;2023-02-24T06:26:41;8.30;99.90
324;DHT22;149;51.094;17.002;2023-02-24T06:29:13;8.10;99.90
324;DHT22;149;51.094;17.002;2023-02-24T06:31:41;8.10;99.90
324;DHT22;149;51.094;17.002;2023-02-24T06:34:11;8.10;99.90
324;DHT22;149;51.094;17.002;2023-02-24T06:36:46;8.00;99.90
324;DHT22;149;51.094;17.002;2023-02-24T06:39:14;8.10;99.90
324;DHT22;149;51.094;17.002;2023-02-24T06:41:43;8.10;99.90
324;DHT22;149;51.094;17.002;2023-02-24T06:44:09;8.10;99.90
324;DHT22;149;51.094;17.002;2023-02-24T06:46:37;8.20;99.90
324;DHT22;149;51.094;17.002;2023-02-24T06:49:04;8.20;99.90
324;DHT22;149;51.094;17.002;2023-02-24T06:51:31;8.30;99.90
324;DHT22;149;51.094;17.002;2023-02-24T06:53:59;8.40;99.90
324;DHT22;149;51.094;17.002;2023-02-24T06:56:26;8.40;99.90
324;DHT22;149;51.094;17.002;2023-02-24T06:58:54;8.40;99.90
324;DHT22;149;51.094;17.002;2023-02-24T07:01:24;8.30;99.90
324;DHT22;149;51.094;17.002;2023-02-24T07:03:53;8.30;99.90
324;DHT22;149;51.094;17.002;2023-02-24T07:06:35;8.20;99.90
324;DHT22;149;51.094;17.002;2023-02-24T07:09:11;8.20;99.90
324;DHT22;149;51.094;17.002;2023-02-24T07:11:44;8.20;99.90
324;DHT22;149;51.094;17.002;2023-02-24T07:14:25;8.20;99.90
324;DHT22;149;51.094;17.002;2023-02-24T07:16:54;8.10;99.90
324;DHT22;149;51.094;17.002;2023-02-24T07:19:30;8.10;99.90
324;DHT22;149;51.094;17.002;2023-02-24T07:21:59;8.10;99.90
324;DHT22;149;51.094;17.002;2023-02-24T07:24:30;8.10;99.90
324;DHT22;149;51.094;17.002;2023-02-24T07:27:09;7.90;99.90
324;DHT22;149;51.094;17.002;2023-02-24T07:29:37;7.80;99.90
324;DHT22;149;51.094;17.002;2023-02-24T07:32:06;7.80;99.90
324;DHT22;149;51.094;17.002;2023-02-24T07:34:35;7.70;99.90
324;DHT22;149;51.094;17.002;2023-02-24T07:37:07;7.50;99.90
324;DHT22;149;51.094;17.002;2023-02-24T07:39:35;7.50;99.90
324;DHT22;149;51.094;17.002;2023-02-24T07:42:03;7.40;99.90
324;DHT22;149;51.094;17.002;2023-02-24T07:44:33;7.50;99.90
324;DHT22;149;51.094;17.002;2023-02-24T07:47:01;7.50;99.90
324;DHT22;149;51.094;17.002;2023-02-24T07:49:38;7.60;99.90
324;DHT22;149;51.094;17.002;2023-02-24T07:52:07;7.60;99.90
324;DHT22;149;51.094;17.002;2023-02-24T07:54:34;7.50;99.90
324;DHT22;149;51.094;17.002;2023-02-24T07:57:01;7.50;99.90
324;DHT22;149;51.094;17.002;2023-02-24T07:59:31;7.60;99.90
324;DHT22;149;51.094;17.002;2023-02-24T08:01:59;7.70;99.90
324;DHT22;149;51.094;17.002;2023-02-24T08:04:31;7.60;99.90
324;DHT22;149;51.094;17.002;2023-02-24T08:06:59;7.50;99.90
324;DHT22;149;51.094;17.002;2023-02-24T08:09:33;7.50;99.90
324;DHT22;149;51.094;17.002;2023-02-24T08:12:32;7.60;99.90
324;DHT22;149;51.094;17.002;2023-02-24T08:15:01;7.80;99.90
324;DHT22;149;51.094;17.002;2023-02-24T08:17:43;7.90;99.90
324;DHT22;149;51.094;17.002;2023-02-24T08:20:13;8.10;99.90
324;DHT22;149;51.094;17.002;2023-02-24T08:22:42;8.20;99.90
324;DHT22;149;51.094;17.002;2023-02-24T08:25:13;8.20;99.90
324;DHT22;149;51.094;17.002;2023-02-24T08:27:46;8.30;99.90
324;DHT22;149;51.094;17.002;2023-02-24T08:30:36;8.40;99.90
324;DHT22;149;51.094;17.002;2023-02-24T08:33:17;8.50;99.90
324;DHT22;149;51.094;17.002;2023-02-24T08:35:48;8.50;99.90
324;DHT22;149;51.094;17.002;2023-02-24T08:38:19;8.50;99.90
324;DHT22;149;51.094;17.002;2023-02-24T08:40:50;8.40;99.90
324;DHT22;149;51.094;17.002;2023-02-24T08:43:27;8.20;99.90
324;DHT22;149;51.094;17.002;2023-02-24T08:45:56;8.10;99.90
324;DHT22;149;51.094;17.002;2023-02-24T08:48:25;8.10;99.90
324;DHT22;149;51.094;17.002;2023-02-24T08:51:00;8.10;99.90
324;DHT22;149;51.094;17.002;2023-02-24T08:53:30;8.20;99.90
324;DHT22;149;51.094;17.002;2023-02-24T08:56:02;8.10;99.90
324;DHT22;149;51.094;17.002;2023-02-24T08:58:43;8.10;99.90
324;DHT22;149;51.094;17.002;2023-02-24T09:01:19;8.10;99.90
324;DHT22;149;51.094;17.002;2023-02-24T09:03:55;8.30;99.90
324;DHT22;149;51.094;17.002;2023-02-24T09:06:46;8.10;99.90
324;DHT22;149;51.094;17.002;2023-02-24T09:09:16;8.20;99.90
324;DHT22;149;51.094;17.002;2023-02-24T09:14:26;8.50;99.90
324;DHT22;149;51.094;17.002;2023-02-24T09:16:57;8.60;99.90
324;DHT22;149;51.094;17.002;2023-02-24T09:22:08;8.70;99.90
324;DHT22;149;51.094;17.002;2023-02-24T09:25:11;8.70;99.90
324;DHT22;149;51.094;17.002;2023-02-24T09:30:25;8.60;99.90
324;DHT22;149;51.094;17.002;2023-02-24T09:33:16;8.60;99.90
324;DHT22;149;51.094;17.002;2023-02-24T09:36:03;8.60;99.90
324;DHT22;149;51.094;17.002;2023-02-24T09:41:37;8.70;99.90
324;DHT22;149;51.094;17.002;2023-02-24T09:44:35;8.80;99.90
324;DHT22;149;51.094;17.002;2023-02-24T09:47:19;8.90;99.90
324;DHT22;149;51.094;17.002;2023-02-24T09:50:12;8.80;99.90
324;DHT22;149;51.094;17.002;2023-02-24T09:53:02;8.60;99.90
324;DHT22;149;51.094;17.002;2023-02-24T09:55:49;8.60;99.90
324;DHT22;149;51.094;17.002;2023-02-24T10:07:09;8.30;99.90
324;DHT22;149;51.094;17.002;2023-02-24T10:09:43;8.40;99.90
324;DHT22;149;51.094;17.002;2023-02-24T10:14:49;8.70;99.90
324;DHT22;149;51.094;17.002;2023-02-24T10:17:53;8.70;99.90
324;DHT22;149;51.094;17.002;2023-02-24T10:20:24;8.70;99.90
324;DHT22;149;51.094;17.002;2023-02-24T10:23:18;8.80;99.90
324;DHT22;149;51.094;17.002;2023-02-24T10:26:01;9.00;99.90
324;DHT22;149;51.094;17.002;2023-02-24T10:28:52;9.30;99.90
324;DHT22;149;51.094;17.002;2023-02-24T10:31:23;8.90;99.90
324;DHT22;149;51.094;17.002;2023-02-24T10:33:59;8.60;99.90
324;DHT22;149;51.094;17.002;2023-02-24T10:36:29;8.40;99.90
324;DHT22;149;51.094;17.002;2023-02-24T10:41:46;8.30;99.90
324;DHT22;149;51.094;17.002;2023-02-24T10:44:25;8.30;99.90
324;DHT22;149;51.094;17.002;2023-02-24T10:47:00;8.40;99.90
324;DHT22;149;51.094;17.002;2023-02-24T10:49:45;8.50;99.90
324;DHT22;149;51.094;17.002;2023-02-24T10:52:30;8.90;99.90
324;DHT22;149;51.094;17.002;2023-02-24T10:55:24;9.50;99.90
324;DHT22;149;51.094;17.002;2023-02-24T10:58:01;10.00;99.90
324;DHT22;149;51.094;17.002;2023-02-24T11:00:45;9.90;99.90
324;DHT22;149;51.094;17.002;2023-02-24T11:03:45;9.60;99.90
324;DHT22;149;51.094;17.002;2023-02-24T11:06:24;9.30;99.90
324;DHT22;149;51.094;17.002;2023-02-24T11:12:11;9.60;99.90
324;DHT22;149;51.094;17.002;2023-02-24T11:15:03;9.60;99.90
324;DHT22;149;51.094;17.002;2023-02-24T11:17:53;9.40;99.90
324;DHT22;149;51.094;17.002;2023-02-24T11:20:54;9.20;99.90
324;DHT22;149;51.094;17.002;2023-02-24T11:23:34;9.00;99.90
324;DHT22;149;51.094;17.002;2023-02-24T11:26:40;8.70;99.90
324;DHT22;149;51.094;17.002;2023-02-24T11:34:54;8.30;99.90
324;DHT22;149;51.094;17.002;2023-02-24T11:37:59;8.40;99.90
324;DHT22;149;51.094;17.002;2023-02-24T11:40:36;8.50;99.90
324;DHT22;149;51.094;17.002;2023-02-24T11:43:18;8.70;99.90
324;DHT22;149;51.094;17.002;2023-02-24T11:45:59;8.70;99.90
324;DHT22;149;51.094;17.002;2023-02-24T11:48:35;8.70;99.90
324;DHT22;149;51.094;17.002;2023-02-24T11:51:15;8.50;99.90
324;DHT22;149;51.094;17.002;2023-02-24T11:54:02;8.50;99.90
324;DHT22;149;51.094;17.002;2023-02-24T11:56:51;8.70;99.90
324;DHT22;149;51.094;17.002;2023-02-24T11:59:42;8.90;99.90
324;DHT22;149;51.094;17.002;2023-02-24T12:02:45;9.30;99.90
324;DHT22;149;51.094;17.002;2023-02-24T12:05:22;9.80;99.90
324;DHT22;149;51.094;17.002;2023-02-24T12:10:33;10.10;99.90
324;DHT22;149;51.094;17.002;2023-02-24T12:15:48;10.50;99.90
324;DHT22;149;51.094;17.002;2023-02-24T12:23:39;10.40;99.90
324;DHT22;149;51.094;17.002;2023-02-24T12:26:19;10.60;99.90
324;DHT22;149;51.094;17.002;2023-02-24T12:34:30;11.40;99.90
324;DHT22;149;51.094;17.002;2023-02-24T12:54:28;11.20;99.90
324;DHT22;149;51.094;17.002;2023-02-24T12:57:20;11.10;99.90
324;DHT22;149;51.094;17.002;2023-02-24T12:59:49;10.90;99.90
324;DHT22;149;51.094;17.002;2023-02-24T13:02:51;10.80;99.90
324;DHT22;149;51.094;17.002;2023-02-24T13:05:30;10.60;99.90
324;DHT22;149;51.094;17.002;2023-02-24T13:08:20;10.80;99.90
324;DHT22;149;51.094;17.002;2023-02-24T13:11:18;11.10;99.90
324;DHT22;149;51.094;17.002;2023-02-24T13:13:57;11.10;99.90
324;DHT22;149;51.094;17.002;2023-02-24T13:16:29;11.30;99.90
324;DHT22;149;51.094;17.002;2023-02-24T13:19:27;11.50;99.90
324;DHT22;149;51.094;17.002;2023-02-24T13:25:27;11.50;99.90
324;DHT22;149;51.094;17.002;2023-02-24T13:27:38;11.40;99.90
324;DHT22;149;51.094;17.002;2023-02-24T13:32:56;11.60;99.90
324;DHT22;149;51.094;17.002;2023-02-24T13:37:51;11.50;99.90
324;DHT22;149;51.094;17.002;2023-02-24T13:45:24;11.00;99.90
324;DHT22;149;51.094;17.002;2023-02-24T13:59:42;11.10;99.90
324;DHT22;149;51.094;17.002;2023-02-24T14:02:16;10.80;99.90
324;DHT22;149;51.094;17.002;2023-02-24T14:04:48;10.50;99.90
324;DHT22;149;51.094;17.002;2023-02-24T14:07:28;10.50;99.90
324;DHT22;149;51.094;17.002;2023-02-24T14:10:00;10.50;99.90
324;DHT22;149;51.094;17.002;2023-02-24T14:12:31;10.40;99.90
324;DHT22;149;51.094;17.002;2023-02-24T14:15:01;10.50;99.90
324;DHT22;149;51.094;17.002;2023-02-24T14:17:30;10.30;99.90
324;DHT22;149;51.094;17.002;2023-02-24T14:20:17;9.90;99.90
324;DHT22;149;51.094;17.002;2023-02-24T14:22:49;10.00;99.90
324;DHT22;149;51.094;17.002;2023-02-24T14:25:16;9.90;99.90
324;DHT22;149;51.094;17.002;2023-02-24T14:27:46;9.90;99.90
324;DHT22;149;51.094;17.002;2023-02-24T14:32:52;9.60;99.90
324;DHT22;149;51.094;17.002;2023-02-24T14:35:25;9.60;99.90
324;DHT22;149;51.094;17.002;2023-02-24T14:37:53;9.50;99.90
324;DHT22;149;51.094;17.002;2023-02-24T14:40:20;9.50;99.90
324;DHT22;149;51.094;17.002;2023-02-24T14:42:54;9.50;99.90
324;DHT22;149;51.094;17.002;2023-02-24T14:45:26;9.50;99.90
324;DHT22;149;51.094;17.002;2023-02-24T14:47:55;9.30;99.90
324;DHT22;149;51.094;17.002;2023-02-24T14:50:28;9.30;99.90
324;DHT22;149;51.094;17.002;2023-02-24T14:53:06;9.30;99.90
324;DHT22;149;51.094;17.002;2023-02-24T14:55:39;9.40;99.90
324;DHT22;149;51.094;17.002;2023-02-24T14:58:26;9.20;99.90
324;DHT22;149;51.094;17.002;2023-02-24T15:01:35;9.10;99.90
324;DHT22;149;51.094;17.002;2023-02-24T15:04:14;9.00;99.90
324;DHT22;149;51.094;17.002;2023-02-24T15:06:45;9.00;99.90
324;DHT22;149;51.094;17.002;2023-02-24T15:09:19;8.80;99.90
324;DHT22;149;51.094;17.002;2023-02-24T15:11:50;8.60;99.90
324;DHT22;149;51.094;17.002;2023-02-24T15:14:30;8.50;99.90
324;DHT22;149;51.094;17.002;2023-02-24T15:17:00;8.60;99.90
324;DHT22;149;51.094;17.002;2023-02-24T15:19:38;8.50;99.90
324;DHT22;149;51.094;17.002;2023-02-24T15:22:46;8.60;99.90
324;DHT22;149;51.094;17.002;2023-02-24T15:25:22;8.40;99.90
324;DHT22;149;51.094;17.002;2023-02-24T15:28:23;8.40;99.90
324;DHT22;149;51.094;17.002;2023-02-24T15:33:28;8.30;99.90
324;DHT22;149;51.094;17.002;2023-02-24T15:35:58;8.40;99.90
324;DHT22;149;51.094;17.002;2023-02-24T15:38:31;8.30;99.90
324;DHT22;149;51.094;17.002;2023-02-24T15:41:00;8.40;99.90
324;DHT22;149;51.094;17.002;2023-02-24T15:43:49;8.30;99.90
324;DHT22;149;51.094;17.002;2023-02-24T15:46:30;8.30;99.90
324;DHT22;149;51.094;17.002;2023-02-24T15:48:58;8.30;99.90
324;DHT22;149;51.094;17.002;2023-02-24T15:51:39;8.10;99.90
324;DHT22;149;51.094;17.002;2023-02-24T15:54:11;8.20;99.90
324;DHT22;149;51.094;17.002;2023-02-24T15:56:39;8.20;99.90
324;DHT22;149;51.094;17.002;2023-02-24T15:59:12;8.30;99.90
324;DHT22;149;51.094;17.002;2023-02-24T16:01:40;8.30;99.90
324;DHT22;149;51.094;17.002;2023-02-24T16:04:12;8.60;99.90
324;DHT22;149;51.094;17.002;2023-02-24T16:06:43;8.40;99.90
324;DHT22;149;51.094;17.002;2023-02-24T16:09:28;8.40;99.90
324;DHT22;149;51.094;17.002;2023-02-24T16:11:58;8.20;99.90
324;DHT22;149;51.094;17.002;2023-02-24T16:14:25;8.10;99.90
324;DHT22;149;51.094;17.002;2023-02-24T16:16:53;7.90;99.90
324;DHT22;149;51.094;17.002;2023-02-24T16:19:20;7.90;99.90
324;DHT22;149;51.094;17.002;2023-02-24T16:21:48;7.70;99.90
324;DHT22;149;51.094;17.002;2023-02-24T16:24:15;7.50;99.90
324;DHT22;149;51.094;17.002;2023-02-24T16:26:47;7.80;99.90
324;DHT22;149;51.094;17.002;2023-02-24T16:29:15;7.80;99.90
324;DHT22;149;51.094;17.002;2023-02-24T16:31:42;8.00;99.90
324;DHT22;149;51.094;17.002;2023-02-24T16:34:13;8.00;99.90
324;DHT22;149;51.094;17.002;2023-02-24T16:36:41;7.80;99.90
324;DHT22;149;51.094;17.002;2023-02-24T16:39:12;7.70;99.90
324;DHT22;149;51.094;17.002;2023-02-24T16:41:40;7.70;99.90
324;DHT22;149;51.094;17.002;2023-02-24T16:44:07;7.50;99.90
324;DHT22;149;51.094;17.002;2023-02-24T16:46:36;7.40;99.90
324;DHT22;149;51.094;17.002;2023-02-24T16:49:07;7.40;99.90
324;DHT22;149;51.094;17.002;2023-02-24T16:51:35;7.50;99.90
324;DHT22;149;51.094;17.002;2023-02-24T16:54:04;7.60;99.90
324;DHT22;149;51.094;17.002;2023-02-24T16:56:32;7.50;99.90
324;DHT22;149;51.094;17.002;2023-02-24T16:58:59;7.50;99.90
324;DHT22;149;51.094;17.002;2023-02-24T17:01:25;7.40;99.90
324;DHT22;149;51.094;17.002;2023-02-24T17:03:53;7.30;99.90
324;DHT22;149;51.094;17.002;2023-02-24T17:06:20;7.40;99.90
324;DHT22;149;51.094;17.002;2023-02-24T17:08:49;7.30;99.90
324;DHT22;149;51.094;17.002;2023-02-24T17:11:19;7.30;99.90
324;DHT22;149;51.094;17.002;2023-02-24T17:13:46;7.10;99.90
324;DHT22;149;51.094;17.002;2023-02-24T17:16:13;6.90;99.90
324;DHT22;149;51.094;17.002;2023-02-24T17:18:40;6.80;99.90
324;DHT22;149;51.094;17.002;2023-02-24T17:21:10;6.50;99.90
324;DHT22;149;51.094;17.002;2023-02-24T17:23:38;6.50;99.90
324;DHT22;149;51.094;17.002;2023-02-24T17:26:06;6.40;99.90
324;DHT22;149;51.094;17.002;2023-02-24T17:28:36;6.40;99.90
324;DHT22;149;51.094;17.002;2023-02-24T17:31:04;6.50;99.90
324;DHT22;149;51.094;17.002;2023-02-24T17:33:35;6.50;99.90
324;DHT22;149;51.094;17.002;2023-02-24T17:36:02;6.40;99.90
324;DHT22;149;51.094;17.002;2023-02-24T17:38:30;6.20;99.90
324;DHT22;149;51.094;17.002;2023-02-24T17:40:58;6.30;99.90
324;DHT22;149;51.094;17.002;2023-02-24T17:43:30;6.40;99.90
324;DHT22;149;51.094;17.002;2023-02-24T17:46:01;6.50;99.90
324;DHT22;149;51.094;17.002;2023-02-24T17:48:32;6.60;99.90
324;DHT22;149;51.094;17.002;2023-02-24T17:51:01;6.60;99.90
324;DHT22;149;51.094;17.002;2023-02-24T17:53:29;6.50;99.90
324;DHT22;149;51.094;17.002;2023-02-24T17:56:06;6.40;99.90
324;DHT22;149;51.094;17.002;2023-02-24T17:58:33;6.60;99.90
324;DHT22;149;51.094;17.002;2023-02-24T18:01:01;6.50;99.90
324;DHT22;149;51.094;17.002;2023-02-24T18:03:28;6.50;99.90
324;DHT22;149;51.094;17.002;2023-02-24T18:06:05;6.70;99.90
324;DHT22;149;51.094;17.002;2023-02-24T18:08:33;6.70;99.90
324;DHT22;149;51.094;17.002;2023-02-24T18:11:02;6.80;99.90
324;DHT22;149;51.094;17.002;2023-02-24T18:13:30;6.60;99.90
324;DHT22;149;51.094;17.002;2023-02-24T18:15:59;6.60;99.90
324;DHT22;149;51.094;17.002;2023-02-24T18:18:31;6.50;99.90
324;DHT22;149;51.094;17.002;2023-02-24T18:21:02;6.30;99.90
324;DHT22;149;51.094;17.002;2023-02-24T18:23:32;6.40;99.90
324;DHT22;149;51.094;17.002;2023-02-24T18:26:02;6.40;99.90
324;DHT22;149;51.094;17.002;2023-02-24T18:28:30;6.40;99.90
324;DHT22;149;51.094;17.002;2023-02-24T18:30:59;6.50;99.90
324;DHT22;149;51.094;17.002;2023-02-24T18:33:27;6.40;99.90
324;DHT22;149;51.094;17.002;2023-02-24T18:35:59;6.80;99.90
324;DHT22;149;51.094;17.002;2023-02-24T18:38:29;6.70;99.90
324;DHT22;149;51.094;17.002;2023-02-24T18:41:11;6.80;99.90
324;DHT22;149;51.094;17.002;2023-02-24T18:43:39;6.90;99.90
324;DHT22;149;51.094;17.002;2023-02-24T18:46:11;6.90;99.90
324;DHT22;149;51.094;17.002;2023-02-24T18:48:38;7.00;99.90
324;DHT22;149;51.094;17.002;2023-02-24T18:51:18;7.00;99.90
324;DHT22;149;51.094;17.002;2023-02-24T18:53:49;6.80;99.90
324;DHT22;149;51.094;17.002;2023-02-24T18:56:21;6.70;99.90
324;DHT22;149;51.094;17.002;2023-02-24T18:58:49;6.60;99.90
324;DHT22;149;51.094;17.002;2023-02-24T19:01:31;6.80;99.90
324;DHT22;149;51.094;17.002;2023-02-24T19:03:59;6.60;99.90
324;DHT22;149;51.094;17.002;2023-02-24T19:06:28;6.70;99.90
324;DHT22;149;51.094;17.002;2023-02-24T19:09:03;6.40;99.90
324;DHT22;149;51.094;17.002;2023-02-24T19:11:32;6.20;99.90
324;DHT22;149;51.094;17.002;2023-02-24T19:13:59;6.00;99.90
324;DHT22;149;51.094;17.002;2023-02-24T19:16:30;5.90;99.90
324;DHT22;149;51.094;17.002;2023-02-24T19:18:57;5.80;99.90
324;DHT22;149;51.094;17.002;2023-02-24T19:21:28;5.80;99.90
324;DHT22;149;51.094;17.002;2023-02-24T19:23:57;5.70;99.90
324;DHT22;149;51.094;17.002;2023-02-24T19:26:26;5.50;99.90